Time;durP1;ratioP1;P1;durP2;ratioP2;P2;SDS_P1;SDS_P2;PMS_P1;PMS_P2;Temp;Humidity;BMP_temperature;BMP_pressure;BME280_temperature;BME280_humidity;BME280_pressure;Samples;Min_cycle;Max_cycle;Signal;HPM_P1;HPM_P2
2023/05/14 00:03:15;;;;;;;23.30;17.20;;;;;;;9.62;93.21;100704.23;180722;1272;58027;-61
2023/05/14 00:07:20;;;;;;;16.10;12.30;;;;;;;9.60;92.81;100698.86;180609;1270;43411;-61
2023/05/14 00:11:22;;;;;;;19.20;13.30;;;;;;;9.49;90.66;100697.34;180642;1270;43068;-61
2023/05/14 00:15:26;;;;;;;18.50;13.70;;;;;;;9.43;91.60;100703.06;180591;1272;43651;-61
2023/05/14 00:19:28;;;;;;;21.60;15.70;;;;;;;9.40;93.46;100702.18;180342;1272;43432;-61
2023/05/14 00:23:31;;;;;;;17.30;13.90;;;;;;;9.34;93.84;100697.70;180453;1273;58459;-61
2023/05/14 00:27:36;;;;;;;17.60;12.90;;;;;;;9.25;94.33;100690.66;180707;1270;43082;-61
2023/05/14 00:31:42;;;;;;;25.40;15.50;;;;;;;9.20;94.75;100688.21;180385;1273;43294;-61
2023/05/14 00:35:45;;;;;;;23.90;16.00;;;;;;;9.20;95.99;100685.04;180391;1273;43663;-63
2023/05/14 00:40:11;;;;;;;29.80;15.70;;;;;;;9.22;96.25;100682.01;180549;1273;42978;-61
2023/05/14 00:44:14;;;;;;;25.80;16.90;;;;;;;9.24;96.38;100680.81;180527;1273;58030;-61
2023/05/14 00:48:18;;;;;;;23.30;16.00;;;;;;;9.28;96.22;100677.90;180416;1273;43751;-60
2023/05/14 00:52:21;;;;;;;21.40;14.90;;;;;;;9.33;96.03;100681.66;180353;1270;43049;-61
2023/05/14 00:56:26;;;;;;;26.20;18.60;;;;;;;9.37;95.52;100685.06;180569;1273;43712;-61
2023/05/14 01:00:29;;;;;;;28.20;17.80;;;;;;;9.41;95.54;100684.80;180721;1271;43125;-61
2023/05/14 01:04:33;;;;;;;23.00;18.00;;;;;;;9.43;95.26;100682.88;180765;1270;59328;-61
2023/05/14 01:09:00;;;;;;;23.00;17.00;;;;;;;9.46;95.01;100679.33;180627;1273;43722;-61
2023/05/14 01:13:57;;;;;;;21.30;15.10;;;;;;;9.47;94.10;100685.06;180771;1270;43061;-61
2023/05/14 01:18:12;;;;;;;16.80;13.60;;;;;;;9.42;92.39;100694.60;179641;1275;43622;-61
2023/05/14 01:22:15;;;;;;;21.10;17.30;;;;;;;9.36;92.43;100689.20;179682;1276;43080;-61
2023/05/14 01:26:19;;;;;;;23.10;18.20;;;;;;;9.28;92.47;100686.19;180163;1274;58340;-61
2023/05/14 01:30:31;;;;;;;22.00;18.00;;;;;;;9.13;93.68;100682.70;180057;1273;43028;-61
2023/05/14 01:34:36;;;;;;;25.40;16.30;;;;;;;9.02;94.54;100683.39;180232;1274;43116;-61
2023/05/14 01:38:44;;;;;;;22.80;17.40;;;;;;;8.99;94.61;100682.50;180248;1273;43725;-61
2023/05/14 01:43:47;;;;;;;21.80;16.40;;;;;;;8.93;95.64;100678.19;180158;1273;43645;-61
2023/05/14 01:47:51;;;;;;;17.30;14.40;;;;;;;8.74;97.69;100682.46;180134;1275;58140;-60
2023/05/14 01:51:57;;;;;;;24.10;18.80;;;;;;;8.70;97.92;100678.69;179744;1270;43523;-61
2023/05/14 01:56:00;;;;;;;20.60;15.70;;;;;;;8.75;98.72;100677.14;180828;1270;43013;-61
2023/05/14 02:00:04;;;;;;;16.20;12.00;;;;;;;8.82;98.85;100676.30;180847;1269;43715;-61
2023/05/14 02:05:00;;;;;;;22.50;16.00;;;;;;;8.92;98.59;100677.40;180863;1269;44210;-61
2023/05/14 02:09:04;;;;;;;24.70;17.20;;;;;;;9.00;98.49;100675.41;180897;1270;58172;-61
2023/05/14 02:13:08;;;;;;;20.60;14.10;;;;;;;8.99;97.88;100671.73;180812;1270;43200;-61
2023/05/14 02:17:14;;;;;;;18.50;15.20;;;;;;;9.02;97.40;100669.47;180894;1270;43779;-61
2023/05/14 02:21:17;;;;;;;20.30;15.20;;;;;;;9.05;97.11;100663.20;180810;1270;43135;-61
2023/05/14 02:25:20;;;;;;;22.90;16.00;;;;;;;9.03;95.78;100661.57;180799;1269;43045;-61
2023/05/14 02:29:25;;;;;;;16.30;14.60;;;;;;;8.80;95.84;100658.37;180751;1270;59972;-61
2023/05/14 02:33:27;;;;;;;19.70;13.70;;;;;;;8.61;96.56;100658.02;180794;1270;43118;-61
2023/05/14 02:37:30;;;;;;;24.70;16.90;;;;;;;8.54;97.71;100657.27;180789;1270;43945;-61
2023/05/14 02:41:33;;;;;;;21.40;16.60;;;;;;;8.52;98.48;100661.48;180839;1269;43339;-61
2023/05/14 02:45:36;;;;;;;17.10;14.00;;;;;;;8.53;98.60;100653.79;180823;1270;43964;-61
2023/05/14 02:49:39;;;;;;;21.50;14.60;;;;;;;8.59;98.50;100650.96;180810;1270;57124;-61
2023/05/14 02:53:42;;;;;;;18.70;14.70;;;;;;;8.63;98.46;100650.66;180778;1269;43104;-61
2023/05/14 02:57:45;;;;;;;20.00;16.30;;;;;;;8.65;97.82;100649.31;180818;1270;43490;-61
2023/05/14 03:02:38;;;;;;;13.80;11.70;;;;;;;8.65;97.59;100650.38;180803;1270;43726;-61
2023/05/14 03:06:41;;;;;;;22.60;14.10;;;;;;;8.65;95.85;100653.01;180806;1269;43046;-61
2023/05/14 03:10:48;;;;;;;19.70;15.10;;;;;;;8.66;94.58;100649.73;180898;1270;58039;-61
2023/05/14 03:14:51;;;;;;;22.90;17.50;;;;;;;8.65;94.09;100654.25;180868;1269;43484;-61
2023/05/14 03:18:54;;;;;;;18.40;15.30;;;;;;;8.63;93.67;100651.73;180870;1268;43403;-61
2023/05/14 03:46:17;;;;;;;25.00;18.80;;;;;;;8.41;95.63;100656.73;175962;1268;44085;-61
2023/05/14 03:50:24;;;;;;;19.20;16.10;;;;;;;8.43;96.15;100661.33;180947;1268;43836;-61
2023/05/14 03:54:27;;;;;;;22.80;14.80;;;;;;;8.45;96.89;100662.47;180926;1268;58024;-61
2023/05/14 03:58:30;;;;;;;17.10;14.40;;;;;;;8.50;98.71;100663.73;180918;1268;43811;-61
2023/05/14 04:02:33;;;;;;;19.50;17.10;;;;;;;8.71;99.29;100659.65;180952;1268;43021;-61
2023/05/14 04:06:36;;;;;;;20.50;16.00;;;;;;;9.35;100.00;100656.54;180898;1268;43538;-61
2023/05/14 04:10:39;;;;;;;18.40;13.70;;;;;;;10.36;99.44;100648.16;180834;1268;43412;-61
2023/05/14 04:14:41;;;;;;;19.80;13.70;;;;;;;11.25;94.56;100644.20;180867;1269;58072;-61
2023/05/14 04:18:44;;;;;;;21.70;15.60;;;;;;;12.03;92.98;100643.41;180905;1268;43759;-61
2023/05/14 04:22:47;;;;;;;20.10;13.80;;;;;;;12.98;89.90;100635.32;180987;1268;43010;-61
2023/05/14 04:26:50;;;;;;;16.80;13.70;;;;;;;13.81;85.90;100632.73;180941;1268;43779;-61
2023/05/14 04:30:53;;;;;;;20.50;16.10;;;;;;;14.38;82.38;100629.86;180928;1268;43678;-61
2023/05/14 04:34:56;;;;;;;18.90;15.60;;;;;;;15.21;80.44;100633.73;180910;1268;58090;-61
2023/05/14 04:38:58;;;;;;;20.60;17.80;;;;;;;16.19;75.80;100628.75;180830;1268;43168;-61
2023/05/14 04:43:01;;;;;;;22.50;15.40;;;;;;;16.85;71.39;100626.11;180941;1268;43622;-61
2023/05/14 04:47:05;;;;;;;18.30;14.10;;;;;;;17.15;69.73;100629.98;180865;1269;43736;-61
2023/05/14 04:51:08;;;;;;;17.80;15.30;;;;;;;17.20;68.93;100626.60;180964;1268;42958;-61
2023/05/14 04:55:11;;;;;;;18.70;16.10;;;;;;;17.56;68.11;100621.98;180862;1269;58590;-61
2023/05/14 04:59:18;;;;;;;18.40;14.30;;;;;;;18.02;64.55;100615.29;180900;1268;43394;-61
2023/05/14 05:03:20;;;;;;;20.90;15.20;;;;;;;18.43;63.73;100611.06;180863;1268;43689;-61
2023/05/14 05:08:18;;;;;;;17.20;14.20;;;;;;;18.96;62.10;100611.02;180928;1268;43127;-61
2023/05/14 05:21:55;;;;;;;24.00;15.90;;;;;;;18.98;58.70;100606.66;180936;1268;43134;-61
2023/05/14 05:25:57;;;;;;;21.70;14.50;;;;;;;18.01;60.67;100612.27;180865;1268;43382;-61
2023/05/14 05:30:01;;;;;;;17.70;12.50;;;;;;;16.90;64.50;100614.61;180906;1268;43110;-61
2023/05/14 05:39:05;;;;;;;18.10;13.30;;;;;;;15.60;70.63;100608.59;180916;1270;58037;-61
2023/05/14 05:43:07;;;;;;;14.80;13.30;;;;;;;15.41;71.67;100599.40;180768;1267;229133;-61
2023/05/14 05:47:10;;;;;;;16.40;14.40;;;;;;;15.57;70.87;100593.58;180977;1268;43017;-61
2023/05/14 05:51:13;;;;;;;32.60;13.40;;;;;;;15.48;71.97;100590.99;180945;1268;43164;-61
2023/05/14 05:55:16;;;;;;;16.00;12.40;;;;;;;15.33;72.66;100592.05;180931;1267;43779;-61
2023/05/14 05:59:19;;;;;;;15.40;13.50;;;;;;;15.47;73.17;100595.88;180896;1267;58295;-61
2023/05/14 07:30:21;;;;;;;20.40;16.40;;;;;;;15.99;74.20;100552.74;181880;1260;46064;-92
2023/05/14 07:34:42;;;;;;;21.90;15.80;;;;;;;16.10;71.33;100545.04;184780;1243;82466;-61
2023/05/14 07:38:45;;;;;;;17.30;14.10;;;;;;;16.24;71.27;100547.91;185202;1237;45956;-61
2023/05/14 07:43:18;;;;;;;20.90;14.80;;;;;;;16.61;71.70;100549.04;185203;1238;43566;-61
2023/05/14 07:47:19;;;;;;;17.80;14.60;;;;;;;17.26;69.62;100539.98;185254;1238;43734;-61
2023/05/14 07:51:29;;;;;;;22.50;14.10;;;;;;;17.84;67.80;100535.38;185264;1236;59044;-61
2023/05/14 07:55:30;;;;;;;18.90;13.00;;;;;;;18.30;64.37;100533.63;185136;1235;43884;-61
2023/05/14 07:59:32;;;;;;;18.80;13.50;;;;;;;18.57;62.63;100533.54;185455;1237;43816;-62
2023/05/14 08:03:35;;;;;;;13.60;10.00;;;;;;;18.79;62.30;100530.77;185161;1236;44753;-61
2023/05/14 08:07:37;;;;;;;11.90;10.60;;;;;;;19.03;62.47;100529.35;185369;1236;44802;-61
2023/05/14 08:11:38;;;;;;;14.70;9.40;;;;;;;19.22;60.60;100527.85;185369;1235;58194;-61
2023/05/14 08:15:40;;;;;;;18.60;11.10;;;;;;;19.41;59.72;100519.48;185314;1238;44827;-61
2023/05/14 08:19:42;;;;;;;10.50;7.80;;;;;;;19.56;59.68;100516.98;185417;1235;45967;-61
2023/05/14 08:23:45;;;;;;;8.10;5.80;;;;;;;19.69;58.39;100513.19;185342;1240;44552;-62
2023/05/14 08:27:47;;;;;;;9.30;6.20;;;;;;;19.81;57.65;100513.11;184940;1235;44784;-61
2023/05/14 08:32:39;;;;;;;7.20;5.80;;;;;;;19.69;57.23;100508.30;185013;1237;58705;-61
2023/05/14 08:36:41;;;;;;;5.60;4.60;;;;;;;19.68;56.95;100508.06;185283;1238;45873;-61
2023/05/14 08:40:53;;;;;;;8.30;5.70;;;;;;;19.60;56.99;100505.77;185423;1235;45818;-59
2023/05/14 08:45:07;;;;;;;7.50;5.40;;;;;;;19.73;59.18;100502.29;185566;1235;43516;-60
2023/05/14 08:53:52;;;;;;;5.60;4.10;;;;;;;19.89;56.71;100490.53;185058;1236;58507;-60
2023/05/14 08:57:55;;;;;;;7.30;4.60;;;;;;;19.94;59.22;100486.32;185192;1237;45868;-60
2023/05/14 09:02:03;;;;;;;6.00;4.40;;;;;;;20.03;58.02;100489.29;185286;1237;46008;-60
2023/05/14 09:06:10;;;;;;;5.40;4.30;;;;;;;20.15;58.11;100485.73;185179;1235;43732;-60
2023/05/14 09:10:11;;;;;;;;;;;;;;;20.26;58.81;100481.49;185203;1235;45873;-59
2023/05/14 09:14:16;;;;;;;5.30;3.20;;;;;;;20.30;55.93;100475.45;185173;1236;58218;-60
2023/05/14 09:18:17;;;;;;;6.10;3.80;;;;;;;20.37;57.00;100474.63;185227;1235;44902;-60
2023/05/14 09:22:21;;;;;;;4.40;3.60;;;;;;;20.53;55.23;100470.15;185131;1235;44126;-60
2023/05/14 09:26:37;;;;;;;4.40;3.50;;;;;;;20.54;54.11;100464.02;185243;1235;43727;-60
2023/05/14 09:30:38;;;;;;;6.10;2.80;;;;;;;20.50;56.19;100457.65;185207;1236;44974;-60
2023/05/14 09:35:18;;;;;;;3.60;3.20;;;;;;;20.58;56.22;100451.72;185227;1237;59261;-61
2023/05/14 09:39:21;;;;;;;7.40;5.50;;;;;;;20.63;55.20;100443.59;185234;1235;45985;-61
2023/05/14 09:43:22;;;;;;;39.10;9.90;;;;;;;20.76;55.84;100437.63;185177;1235;45225;-61
2023/05/14 09:47:31;;;;;;;5.80;4.20;;;;;;;20.93;55.40;100431.04;185079;1238;44895;-61
2023/05/14 09:51:37;;;;;;;4.00;3.60;;;;;;;21.14;54.98;100416.92;184963;1235;43536;-60
2023/05/14 09:55:44;;;;;;;3.40;1.70;;;;;;;21.15;52.44;100418.50;185111;1235;57174;-60
2023/05/14 09:59:46;;;;;;;2.40;1.80;;;;;;;21.07;50.72;100411.39;185218;1240;44445;-60
2023/05/14 10:03:49;;;;;;;3.70;3.40;;;;;;;20.93;50.77;100401.84;185186;1235;46035;-61
2023/05/14 10:07:56;;;;;;;2.90;1.80;;;;;;;20.80;51.84;100399.86;183809;1237;87136;-87
2023/05/14 10:12:04;;;;;;;1.90;1.50;;;;;;;20.71;50.86;100389.42;183469;1237;46036;-90
2023/05/14 10:16:20;;;;;;;2.60;1.90;;;;;;;20.71;51.13;100385.27;183059;1235;57293;-88
2023/05/14 10:20:25;;;;;;;2.70;1.20;;;;;;;20.76;51.04;100379.09;182702;1236;45922;-87
2023/05/14 10:24:29;;;;;;;2.90;2.40;;;;;;;20.80;50.76;100379.86;182845;1235;45977;-90
2023/05/14 10:28:34;;;;;;;1.90;1.40;;;;;;;20.84;51.09;100374.13;183881;1232;45976;-91
2023/05/14 10:32:40;;;;;;;2.10;1.60;;;;;;;20.90;52.21;100367.95;184677;1232;44446;-92
2023/05/14 10:37:00;;;;;;;2.60;1.70;;;;;;;21.09;51.84;100366.44;184508;1232;59929;-91
2023/05/14 10:41:06;;;;;;;3.70;2.40;;;;;;;21.26;50.65;100357.73;184056;1232;45944;-91
2023/05/14 10:45:14;;;;;;;2.20;1.70;;;;;;;21.33;50.84;100357.66;184393;1232;46000;-91
2023/05/14 10:49:17;;;;;;;2.20;1.70;;;;;;;21.40;52.30;100357.19;184312;1232;46072;-91
2023/05/14 10:53:36;;;;;;;2.70;1.40;;;;;;;21.58;49.71;100358.27;184429;1232;45172;-91
2023/05/14 10:57:42;;;;;;;1.40;1.10;;;;;;;21.56;49.96;100350.02;184028;1232;59193;-91
2023/05/14 11:01:44;;;;;;;2.20;2.00;;;;;;;21.65;50.07;100344.02;184351;1232;46068;-91
2023/05/14 11:05:47;;;;;;;1.80;1.60;;;;;;;21.78;51.22;100343.02;184080;1232;44547;-91
2023/05/14 11:10:07;;;;;;;1.30;1.20;;;;;;;21.94;49.76;100339.92;184196;1232;45912;-89
2023/05/14 11:14:11;;;;;;;1.90;1.70;;;;;;;22.01;49.39;100330.25;184550;1233;44578;-90
2023/05/14 11:18:29;;;;;;;3.50;1.50;;;;;;;22.11;52.09;100329.51;183634;1234;59095;-89
2023/05/14 11:22:34;;;;;;;1.50;1.10;;;;;;;22.25;50.72;100320.64;183735;1237;46678;-90
2023/05/14 11:26:36;;;;;;;;;;;;;;;22.22;48.42;100313.05;183888;1234;45921;-90
2023/05/14 11:30:39;;;;;;;1.70;1.10;;;;;;;22.11;47.74;100308.38;183634;1234;45702;-90
2023/05/14 11:34:46;;;;;;;2.20;0.90;;;;;;;22.09;47.48;100306.45;183819;1234;44674;-89
2023/05/14 11:38:51;;;;;;;0.90;0.60;;;;;;;22.08;47.33;100304.79;183830;1234;59428;-88
2023/05/14 11:42:54;;;;;;;2.70;1.50;;;;;;;22.10;46.94;100301.63;184143;1237;46079;-90
2023/05/14 11:46:58;;;;;;;1.80;1.20;;;;;;;22.15;48.76;100303.35;183296;1234;45516;-90
2023/05/14 11:51:00;;;;;;;3.70;1.00;;;;;;;22.32;50.56;100299.41;183448;1234;44674;-90
2023/05/14 11:55:03;;;;;;;1.30;1.20;;;;;;;22.43;49.73;100294.66;183733;1234;46087;-90
2023/05/14 12:03:28;;;;;;;1.30;1.20;;;;;;;22.68;49.19;100280.10;187304;1233;43586;-64
2023/05/14 12:07:34;;;;;;;0.80;0.80;;;;;;;22.64;47.60;100283.11;186897;1233;42987;-64
2023/05/14 12:11:41;;;;;;;2.50;1.60;;;;;;;22.60;47.90;100281.30;187019;1233;43008;-64
2023/05/14 12:16:01;;;;;;;2.30;1.40;;;;;;;22.61;48.41;100268.89;186938;1234;43047;-64
2023/05/14 12:20:03;;;;;;;2.70;1.50;;;;;;;22.81;48.76;100263.55;187256;1234;58196;-64
2023/05/14 12:24:13;;;;;;;1.00;0.90;;;;;;;22.90;48.36;100262.39;187290;1233;43028;-64
2023/05/14 12:28:15;;;;;;;1.50;1.30;;;;;;;22.82;47.26;100257.63;187050;1233;42909;-64
2023/05/14 12:32:36;;;;;;;2.80;1.20;;;;;;;22.76;47.02;100249.12;186994;1234;43402;-65
2023/05/14 12:36:38;;;;;;;1.50;1.00;;;;;;;22.68;47.06;100245.61;186856;1233;43642;-64
2023/05/14 12:40:39;;;;;;;1.40;1.10;;;;;;;22.72;46.08;100243.38;187208;1233;58002;-65
2023/05/14 12:44:41;;;;;;;2.40;1.70;;;;;;;22.77;47.45;100238.08;187371;1233;43622;-65
2023/05/14 12:48:42;;;;;;;1.60;1.50;;;;;;;22.75;45.05;100236.67;187350;1233;43030;-65
2023/05/14 12:52:45;;;;;;;2.60;1.00;;;;;;;22.65;45.65;100232.35;187350;1233;42972;-65
2023/05/14 12:56:46;;;;;;;1.30;1.10;;;;;;;22.63;45.79;100224.81;187058;1234;42993;-65
2023/05/14 13:01:39;;;;;;;1.00;0.80;;;;;;;22.59;46.08;100228.66;187318;1233;57032;-65
2023/05/14 13:05:41;;;;;;;1.20;1.10;;;;;;;22.69;47.83;100220.05;187325;1233;43146;-64
2023/05/14 13:09:42;;;;;;;1.70;1.40;;;;;;;22.85;49.08;100219.21;187376;1234;42978;-64
2023/05/14 13:13:43;;;;;;;7.60;2.80;;;;;;;22.99;48.62;100222.38;187373;1233;43564;-64
2023/05/14 13:17:45;;;;;;;2.10;1.80;;;;;;;23.09;46.54;100216.95;187279;1233;43602;-64
2023/05/14 13:21:46;;;;;;;2.70;2.40;;;;;;;23.13;46.46;100210.30;187159;1234;59209;-64
2023/05/14 13:25:48;;;;;;;1.80;1.60;;;;;;;23.15;46.67;100204.63;187328;1234;43060;-64
2023/05/14 13:29:51;;;;;;;4.50;2.10;;;;;;;23.30;47.50;100195.70;187398;1233;43576;-64
2023/05/14 13:33:53;;;;;;;1.80;1.60;;;;;;;23.50;45.45;100188.66;187320;1233;42965;-64
2023/05/14 13:37:55;;;;;;;1.00;1.00;;;;;;;23.43;44.47;100188.77;187310;1234;43643;-64
2023/05/14 13:41:56;;;;;;;1.30;1.10;;;;;;;23.31;43.43;100184.71;187222;1234;58024;-64
2023/05/14 13:45:58;;;;;;;2.10;1.50;;;;;;;23.33;45.26;100177.66;187299;1234;44047;-64
2023/05/14 13:50:06;;;;;;;3.50;2.10;;;;;;;23.34;46.22;100175.98;187369;1234;43672;-64
2023/05/14 13:54:08;;;;;;;3.00;2.40;;;;;;;23.40;47.25;100172.17;187034;1233;43672;-64
2023/05/14 13:58:09;;;;;;;9.90;6.50;;;;;;;23.61;47.12;100169.96;187118;1233;42920;-64
2023/05/14 14:40:48;;;;;;;7.50;2.50;;;;;;;23.48;46.45;100131.42;187293;1233;43221;-64
2023/05/14 14:44:50;;;;;;;2.10;1.70;;;;;;;23.50;47.46;100131.41;187123;1233;43110;-65
2023/05/14 14:48:51;;;;;;;3.90;2.30;;;;;;;23.58;46.29;100131.46;186808;1234;43612;-64
2023/05/14 14:52:53;;;;;;;17.30;4.30;;;;;;;23.54;45.98;100127.80;187328;1233;43160;-64
2023/05/14 14:57:23;;;;;;;1.90;1.60;;;;;;;23.52;44.72;100129.69;187365;1235;43029;-64
2023/05/14 15:01:32;;;;;;;2.30;1.90;;;;;;;23.54;45.05;100127.89;187321;1235;42944;-64
2023/05/14 15:05:34;;;;;;;5.60;2.00;;;;;;;23.55;45.64;100119.20;187355;1235;43427;-64
2023/05/14 15:09:35;;;;;;;168.30;27.50;;;;;;;23.52;47.04;100113.32;187094;1235;43682;-64
2023/05/14 15:13:38;;;;;;;2.70;2.00;;;;;;;23.51;47.05;100111.98;187355;1235;58044;-64
2023/05/14 15:18:30;;;;;;;3.40;2.30;;;;;;;23.55;47.57;100107.97;187350;1237;43503;-64
2023/05/14 15:22:32;;;;;;;42.30;6.30;;;;;;;23.39;47.37;100105.99;187349;1235;42989;-64
2023/05/14 15:26:33;;;;;;;4.60;1.90;;;;;;;23.23;48.68;100104.29;187300;1234;43069;-64
2023/05/14 15:31:01;;;;;;;3.10;2.30;;;;;;;23.26;47.51;100099.81;187359;1235;43546;-63
2023/05/14 15:35:03;;;;;;;92.90;14.60;;;;;;;23.22;48.04;100098.52;187331;1237;59343;-64
2023/05/14 15:39:10;;;;;;;1.60;1.40;;;;;;;23.08;47.78;100096.59;187319;1235;43586;-64
2023/05/14 15:43:11;;;;;;;349.40;68.00;;;;;;;23.01;48.47;100094.94;187295;1234;42952;-64
2023/05/14 15:47:14;;;;;;;7.60;3.00;;;;;;;22.97;48.98;100090.64;187343;1235;43635;-64
2023/05/14 15:51:15;;;;;;;2.80;2.30;;;;;;;22.89;48.96;100086.96;187049;1233;42944;-64
2023/05/14 15:55:21;;;;;;;38.20;7.30;;;;;;;22.77;48.92;100084.16;187031;1235;43374;-64
2023/05/14 15:59:23;;;;;;;8.40;3.00;;;;;;;22.62;48.54;100079.10;187032;1233;42947;-64
2023/05/14 16:03:24;;;;;;;4.20;3.50;;;;;;;22.63;47.57;100071.17;187356;1233;43710;-66
2023/05/14 16:07:26;;;;;;;6.90;2.60;;;;;;;22.61;47.34;100073.55;187219;1235;43011;-64
2023/05/14 16:11:29;;;;;;;2.70;1.90;;;;;;;22.56;47.73;100075.30;187278;1233;42949;-65
2023/05/14 16:15:43;;;;;;;4.90;2.30;;;;;;;22.47;49.47;100072.21;187225;1234;58125;-66
2023/05/14 16:19:44;;;;;;;2.30;1.90;;;;;;;22.42;48.87;100072.50;187015;1237;43721;-67
2023/05/14 16:23:46;;;;;;;4.00;2.20;;;;;;;22.39;49.27;100069.70;186980;1233;43019;-66
2023/05/14 16:27:47;;;;;;;8.50;3.70;;;;;;;22.27;50.36;100065.45;186777;1235;43716;-65
2023/05/14 16:32:04;;;;;;;5.30;4.20;;;;;;;21.87;52.98;100063.71;187200;1233;43759;-65
2023/05/14 16:36:06;;;;;;;6.30;4.20;;;;;;;21.47;56.01;100062.83;187010;1234;58155;-65
2023/05/14 16:40:11;;;;;;;5.40;4.60;;;;;;;21.27;57.49;100063.35;186900;1235;43655;-66
2023/05/14 16:45:14;;;;;;;7.70;5.80;;;;;;;21.02;59.21;100066.08;187172;1235;42950;-65
2023/05/14 16:49:16;;;;;;;13.60;7.70;;;;;;;20.74;60.84;100067.55;187299;1233;43325;-65
2023/05/14 17:02:47;;;;;;;20.80;8.00;;;;;;;19.78;65.59;100067.86;187130;1233;80746;-60
2023/05/14 17:11:44;;;;;;;9.90;7.80;;;;;;;19.34;66.62;100074.34;187016;1235;43138;-61
2023/05/14 17:15:45;;;;;;;8.10;7.00;;;;;;;19.16;68.16;100071.63;187132;1235;43030;-60
2023/05/14 17:24:06;;;;;;;13.00;7.50;;;;;;;18.76;70.89;100075.23;187313;1233;43195;-60
2023/05/14 17:28:07;;;;;;;10.00;7.00;;;;;;;18.62;71.35;100076.48;187244;1233;43023;-59
2023/05/14 17:32:09;;;;;;;6.90;6.20;;;;;;;18.51;71.61;100075.95;187276;1232;43038;-60
2023/05/14 17:36:19;;;;;;;7.30;6.60;;;;;;;18.38;72.52;100074.09;187346;1232;42910;-59
2023/05/14 17:40:21;;;;;;;12.50;7.60;;;;;;;18.29;73.44;100072.66;187120;1233;58178;-59
2023/05/14 17:44:22;;;;;;;8.40;7.50;;;;;;;18.15;74.62;100080.00;187204;1232;43369;-59
2023/05/14 17:48:23;;;;;;;7.90;7.10;;;;;;;18.04;75.75;100079.17;187201;1233;43778;-59
2023/05/14 17:52:30;;;;;;;9.50;7.00;;;;;;;17.92;76.95;100078.95;187014;1232;43576;-59
2023/05/14 17:56:32;;;;;;;9.50;6.50;;;;;;;17.86;77.20;100074.73;187243;1233;42973;-59
2023/05/14 18:00:33;;;;;;;8.40;7.60;;;;;;;17.79;77.55;100074.09;187211;1233;57202;-59
2023/05/14 18:04:35;;;;;;;8.90;7.40;;;;;;;17.70;78.16;100075.29;187307;1233;43454;-59
2023/05/14 18:08:36;;;;;;;11.70;8.10;;;;;;;17.61;78.27;100082.93;187079;1232;43335;-59
2023/05/14 18:12:40;;;;;;;17.90;8.40;;;;;;;17.51;78.22;100084.48;186826;1236;43273;-60
2023/05/14 18:16:42;;;;;;;6.40;5.80;;;;;;;17.46;78.16;100079.37;187242;1232;43336;-59
2023/05/14 18:20:43;;;;;;;7.90;6.60;;;;;;;17.39;78.34;100082.29;187336;1232;58417;-59
2023/05/14 18:24:45;;;;;;;9.50;7.60;;;;;;;17.35;78.47;100078.90;187265;1234;43030;-58
2023/05/14 18:28:47;;;;;;;7.50;6.20;;;;;;;17.34;78.51;100075.45;187292;1233;43337;-59
2023/05/14 18:32:48;;;;;;;9.60;7.20;;;;;;;17.37;77.99;100075.67;187210;1234;43316;-59
2023/05/14 18:36:50;;;;;;;9.00;7.90;;;;;;;17.37;78.43;100069.55;187283;1233;43260;-59
2023/05/14 18:40:57;;;;;;;8.80;7.60;;;;;;;17.33;79.25;100065.91;187140;1233;58127;-60
2023/05/14 18:44:58;;;;;;;8.70;5.90;;;;;;;17.26;79.37;100069.13;187170;1234;43644;-59
2023/05/14 18:48:59;;;;;;;7.90;6.10;;;;;;;17.21;79.99;100071.20;187278;1233;42960;-59
2023/05/14 19:16:33;;;;;;;8.60;6.50;;;;;;;16.96;84.90;100074.66;186940;1234;83939;-66
2023/05/14 19:21:00;;;;;;;165.40;31.10;;;;;;;16.99;84.05;100078.48;186817;1234;57992;-66
2023/05/14 19:25:01;;;;;;;34.50;11.10;;;;;;;16.96;84.01;100075.61;187001;1238;43991;-66
2023/05/14 19:29:03;;;;;;;35.30;10.00;;;;;;;16.88;83.35;100067.20;186943;1234;42932;-66
2023/05/14 19:33:04;;;;;;;26.00;9.30;;;;;;;16.75;83.94;100061.56;186841;1234;43007;-66
2023/05/14 19:37:06;;;;;;;12.90;9.10;;;;;;;16.57;85.98;100058.39;186789;1234;43798;-67
2023/05/14 19:41:08;;;;;;;11.40;8.00;;;;;;;16.57;87.74;100059.52;186904;1234;59248;-66
2023/05/14 19:45:10;;;;;;;10.40;7.90;;;;;;;16.59;87.36;100056.80;187256;1234;43293;-66
2023/05/14 19:49:11;;;;;;;6.70;5.70;;;;;;;16.57;87.59;100054.79;187374;1234;43254;-66
2023/05/14 19:53:13;;;;;;;11.50;8.00;;;;;;;16.59;87.25;100051.39;187333;1234;43726;-66
2023/05/14 19:57:14;;;;;;;10.90;9.10;;;;;;;16.62;87.75;100049.08;187063;1233;43662;-65
2023/05/14 20:01:16;;;;;;;9.20;7.30;;;;;;;16.61;86.37;100043.13;187292;1234;58329;-66
2023/05/14 20:05:17;;;;;;;9.30;7.60;;;;;;;16.53;84.14;100037.72;187272;1233;43305;-65
2023/05/14 20:09:19;;;;;;;8.90;7.90;;;;;;;16.48;83.85;100036.48;187332;1234;43639;-65
2023/05/14 20:13:20;;;;;;;10.50;6.80;;;;;;;16.44;84.16;100033.73;187227;1234;43766;-66
2023/05/14 20:17:25;;;;;;;10.20;7.10;;;;;;;16.36;83.03;100038.33;187324;1234;43024;-66
2023/05/14 20:21:45;;;;;;;7.20;6.50;;;;;;;16.24;83.54;100034.67;187357;1234;58797;-66
2023/05/14 20:25:46;;;;;;;12.90;8.20;;;;;;;16.04;83.76;100023.92;187365;1234;43039;-65
2023/05/14 20:29:50;;;;;;;9.50;8.00;;;;;;;15.85;86.88;100021.08;187295;1234;43076;-66
2023/05/14 20:33:56;;;;;;;10.30;8.50;;;;;;;15.74;90.35;100018.58;187345;1233;43654;-66
2023/05/14 20:37:58;;;;;;;12.50;10.10;;;;;;;15.66;91.37;100019.40;187342;1234;42960;-66
2023/05/14 20:42:06;;;;;;;10.80;8.40;;;;;;;15.69;92.08;100006.34;187350;1234;57892;-66
2023/05/14 20:46:08;;;;;;;7.90;7.10;;;;;;;15.68;94.17;99999.52;187331;1234;43001;-66
2023/05/14 20:50:38;;;;;;;10.70;9.00;;;;;;;15.70;94.07;99988.50;187371;1234;44225;-66
2023/05/14 20:54:40;;;;;;;11.30;8.90;;;;;;;15.69;95.40;99984.38;187400;1234;43751;-66
2023/05/14 20:59:42;;;;;;;15.00;9.20;;;;;;;15.60;95.46;99974.15;187336;1233;43741;-67
2023/05/14 21:03:43;;;;;;;12.40;9.40;;;;;;;15.48;98.09;99962.73;187295;1234;57131;-67
2023/05/14 21:07:56;;;;;;;11.60;9.10;;;;;;;15.33;97.88;99955.90;187346;1234;43642;-66
2023/05/14 21:11:58;;;;;;;14.70;10.40;;;;;;;15.11;99.67;99949.15;186430;1234;84111;-88
2023/05/14 21:16:00;;;;;;;10.30;8.30;;;;;;;15.06;99.58;99941.59;186385;1233;43993;-88
2023/05/14 21:20:03;;;;;;;14.90;11.10;;;;;;;14.85;100.00;99932.54;186309;1234;43942;-88
2023/05/14 21:24:06;;;;;;;15.20;11.30;;;;;;;14.60;100.00;99919.38;186198;1234;59232;-89
2023/05/14 21:28:08;;;;;;;13.70;11.80;;;;;;;14.44;100.00;99912.08;186180;1234;43534;-89
2023/05/14 21:32:10;;;;;;;18.80;14.80;;;;;;;14.48;100.00;99913.85;186324;1234;43658;-89
2023/05/14 21:36:12;;;;;;;19.60;13.60;;;;;;;14.58;100.00;99917.42;186379;1233;43678;-89
2023/05/14 21:40:15;;;;;;;15.90;11.60;;;;;;;14.62;100.00;99912.27;186320;1233;44111;-87
2023/05/14 21:44:17;;;;;;;16.90;12.50;;;;;;;14.66;100.00;99915.01;186354;1233;58048;-89
2023/05/14 21:48:19;;;;;;;17.40;14.30;;;;;;;14.82;100.00;99917.01;186091;1233;43907;-88
2023/05/14 21:52:21;;;;;;;13.40;11.90;;;;;;;15.02;100.00;99921.31;186219;1233;43898;-89
2023/05/14 21:56:23;;;;;;;19.60;12.50;;;;;;;15.17;100.00;99911.86;186551;1234;44013;-89
2023/05/14 22:00:25;;;;;;;18.40;13.70;;;;;;;15.22;100.00;99913.95;186283;1233;43807;-90
2023/05/14 22:04:27;;;;;;;13.40;10.90;;;;;;;15.21;100.00;99905.41;186313;1233;57817;-90
2023/05/14 22:08:29;;;;;;;15.40;11.70;;;;;;;15.07;100.00;99903.28;186337;1233;43688;-90
2023/05/14 22:12:35;;;;;;;16.70;13.20;;;;;;;14.87;100.00;99905.17;186717;1233;43808;-91
2023/05/14 22:16:37;;;;;;;14.50;11.00;;;;;;;14.73;100.00;99902.79;186382;1233;44158;-90
2023/05/14 22:20:41;;;;;;;12.70;11.30;;;;;;;14.78;100.00;99904.95;186370;1233;44022;-89